sensor_id;sensor_type;location;lat;lon;timestamp;P1;durP1;ratioP1;P2;durP2;ratioP2
49153;SDS011;49455;52.252;9.124;2023-04-07T00:02:32;24.50;;;14.05;;
49153;SDS011;49455;52.252;9.124;2023-04-07T00:07:32;24.10;;;14.00;;
49153;SDS011;49455;52.252;9.124;2023-04-07T00:12:33;21.17;;;13.13;;
49153;SDS011;49455;52.252;9.124;2023-04-07T00:17:33;23.65;;;13.73;;
49153;SDS011;49455;52.252;9.124;2023-04-07T00:22:34;23.63;;;13.80;;
49153;SDS011;49455;52.252;9.124;2023-04-07T00:27:34;21.83;;;13.50;;
49153;SDS011;49455;52.252;9.124;2023-04-07T00:32:35;24.85;;;14.38;;
49153;SDS011;49455;52.252;9.124;2023-04-07T00:37:35;24.85;;;14.13;;
49153;SDS011;49455;52.252;9.124;2023-04-07T00:42:35;24.13;;;13.32;;
49153;SDS011;49455;52.252;9.124;2023-04-07T00:47:36;24.73;;;14.20;;
49153;SDS011;49455;52.252;9.124;2023-04-07T00:52:36;21.02;;;13.00;;
49153;SDS011;49455;52.252;9.124;2023-04-07T00:57:37;18.63;;;12.30;;
49153;SDS011;49455;52.252;9.124;2023-04-07T01:02:41;22.70;;;12.40;;
49153;SDS011;49455;52.252;9.124;2023-04-07T01:07:55;17.77;;;11.80;;
49153;SDS011;49455;52.252;9.124;2023-04-07T01:13:11;17.75;;;11.23;;
49153;SDS011;49455;52.252;9.124;2023-04-07T01:18:23;17.10;;;10.95;;
49153;SDS011;49455;52.252;9.124;2023-04-07T01:34:04;16.75;;;12.00;;
49153;SDS011;49455;52.252;9.124;2023-04-07T01:39:08;16.55;;;11.07;;
49153;SDS011;49455;52.252;9.124;2023-04-07T01:44:10;15.85;;;11.10;;
49153;SDS011;49455;52.252;9.124;2023-04-07T01:49:12;18.13;;;11.68;;
49153;SDS011;49455;52.252;9.124;2023-04-07T01:54:13;19.00;;;12.50;;
49153;SDS011;49455;52.252;9.124;2023-04-07T01:59:14;19.45;;;13.02;;
49153;SDS011;49455;52.252;9.124;2023-04-07T02:04:19;19.38;;;12.27;;
49153;SDS011;49455;52.252;9.124;2023-04-07T02:09:29;21.70;;;13.38;;
49153;SDS011;49455;52.252;9.124;2023-04-07T02:14:31;20.80;;;12.82;;
49153;SDS011;49455;52.252;9.124;2023-04-07T02:19:41;19.17;;;12.98;;
49153;SDS011;49455;52.252;9.124;2023-04-07T02:24:44;19.23;;;12.93;;
49153;SDS011;49455;52.252;9.124;2023-04-07T02:29:44;20.77;;;13.50;;
49153;SDS011;49455;52.252;9.124;2023-04-07T02:34:45;22.45;;;13.30;;
49153;SDS011;49455;52.252;9.124;2023-04-07T02:39:45;17.95;;;12.88;;
49153;SDS011;49455;52.252;9.124;2023-04-07T02:44:46;23.33;;;13.70;;
49153;SDS011;49455;52.252;9.124;2023-04-07T02:49:46;19.13;;;12.38;;
49153;SDS011;49455;52.252;9.124;2023-04-07T02:54:47;18.88;;;12.73;;
49153;SDS011;49455;52.252;9.124;2023-04-07T02:59:48;23.85;;;13.18;;
49153;SDS011;49455;52.252;9.124;2023-04-07T03:04:52;20.80;;;13.32;;
49153;SDS011;49455;52.252;9.124;2023-04-07T03:09:54;18.63;;;12.55;;
49153;SDS011;49455;52.252;9.124;2023-04-07T03:14:55;17.80;;;12.32;;
49153;SDS011;49455;52.252;9.124;2023-04-07T03:24:59;19.55;;;11.98;;
49153;SDS011;49455;52.252;9.124;2023-04-07T03:30:00;17.25;;;12.35;;
49153;SDS011;49455;52.252;9.124;2023-04-07T03:35:03;17.70;;;11.85;;
49153;SDS011;49455;52.252;9.124;2023-04-07T03:40:03;17.17;;;12.18;;
49153;SDS011;49455;52.252;9.124;2023-04-07T03:45:09;18.52;;;11.73;;
49153;SDS011;49455;52.252;9.124;2023-04-07T03:50:15;16.50;;;11.88;;
49153;SDS011;49455;52.252;9.124;2023-04-07T03:55:33;15.65;;;11.02;;
49153;SDS011;49455;52.252;9.124;2023-04-07T04:00:44;19.00;;;12.05;;
49153;SDS011;49455;52.252;9.124;2023-04-07T04:05:46;16.58;;;11.57;;
49153;SDS011;49455;52.252;9.124;2023-04-07T04:10:51;18.38;;;12.73;;
49153;SDS011;49455;52.252;9.124;2023-04-07T04:15:52;20.00;;;12.88;;
49153;SDS011;49455;52.252;9.124;2023-04-07T04:20:53;16.73;;;11.77;;
49153;SDS011;49455;52.252;9.124;2023-04-07T04:25:54;20.27;;;12.15;;
49153;SDS011;49455;52.252;9.124;2023-04-07T04:30:55;18.65;;;12.57;;
49153;SDS011;49455;52.252;9.124;2023-04-07T04:35:55;18.17;;;11.73;;
49153;SDS011;49455;52.252;9.124;2023-04-07T04:46:02;19.58;;;12.13;;
49153;SDS011;49455;52.252;9.124;2023-04-07T04:51:07;19.45;;;11.98;;
49153;SDS011;49455;52.252;9.124;2023-04-07T04:56:10;20.27;;;12.23;;
49153;SDS011;49455;52.252;9.124;2023-04-07T05:01:17;19.67;;;11.82;;
49153;SDS011;49455;52.252;9.124;2023-04-07T05:06:26;20.58;;;12.45;;
49153;SDS011;49455;52.252;9.124;2023-04-07T05:11:29;17.90;;;11.73;;
49153;SDS011;49455;52.252;9.124;2023-04-07T05:16:30;18.13;;;12.20;;
49153;SDS011;49455;52.252;9.124;2023-04-07T05:21:31;18.90;;;12.25;;
49153;SDS011;49455;52.252;9.124;2023-04-07T05:26:35;20.20;;;12.98;;
49153;SDS011;49455;52.252;9.124;2023-04-07T05:31:38;22.40;;;13.30;;
49153;SDS011;49455;52.252;9.124;2023-04-07T05:36:43;23.20;;;13.50;;
49153;SDS011;49455;52.252;9.124;2023-04-07T05:41:44;21.52;;;13.52;;
49153;SDS011;49455;52.252;9.124;2023-04-07T05:46:46;24.20;;;14.75;;
49153;SDS011;49455;52.252;9.124;2023-04-07T05:56:49;20.63;;;13.73;;
49153;SDS011;49455;52.252;9.124;2023-04-07T06:01:50;23.27;;;14.43;;
49153;SDS011;49455;52.252;9.124;2023-04-07T06:06:50;22.33;;;14.40;;
49153;SDS011;49455;52.252;9.124;2023-04-07T06:11:52;22.52;;;14.70;;
49153;SDS011;49455;52.252;9.124;2023-04-07T06:16:54;22.48;;;14.52;;
49153;SDS011;49455;52.252;9.124;2023-04-07T06:21:54;20.58;;;13.13;;
49153;SDS011;49455;52.252;9.124;2023-04-07T06:26:55;20.03;;;12.80;;
49153;SDS011;49455;52.252;9.124;2023-04-07T06:31:55;18.25;;;12.43;;
49153;SDS011;49455;52.252;9.124;2023-04-07T06:36:56;19.40;;;12.35;;
49153;SDS011;49455;52.252;9.124;2023-04-07T06:41:56;20.00;;;11.87;;
49153;SDS011;49455;52.252;9.124;2023-04-07T06:46:56;20.58;;;11.98;;
49153;SDS011;49455;52.252;9.124;2023-04-07T06:51:57;19.15;;;11.90;;
49153;SDS011;49455;52.252;9.124;2023-04-07T06:56:57;17.73;;;11.45;;
49153;SDS011;49455;52.252;9.124;2023-04-07T07:02:00;19.90;;;12.00;;
49153;SDS011;49455;52.252;9.124;2023-04-07T07:07:01;15.57;;;10.95;;
49153;SDS011;49455;52.252;9.124;2023-04-07T07:12:01;16.05;;;10.77;;
49153;SDS011;49455;52.252;9.124;2023-04-07T07:17:02;14.48;;;10.73;;
49153;SDS011;49455;52.252;9.124;2023-04-07T07:22:02;15.00;;;10.95;;
49153;SDS011;49455;52.252;9.124;2023-04-07T07:27:02;13.75;;;10.02;;
49153;SDS011;49455;52.252;9.124;2023-04-07T07:32:03;15.43;;;10.30;;
49153;SDS011;49455;52.252;9.124;2023-04-07T07:37:03;12.70;;;9.63;;
49153;SDS011;49455;52.252;9.124;2023-04-07T07:42:04;15.55;;;10.18;;
49153;SDS011;49455;52.252;9.124;2023-04-07T07:47:04;14.93;;;10.02;;
49153;SDS011;49455;52.252;9.124;2023-04-07T07:52:04;18.92;;;11.20;;
49153;SDS011;49455;52.252;9.124;2023-04-07T07:57:05;18.73;;;11.57;;
49153;SDS011;49455;52.252;9.124;2023-04-07T08:02:06;15.38;;;10.85;;
49153;SDS011;49455;52.252;9.124;2023-04-07T08:07:07;15.77;;;10.98;;
49153;SDS011;49455;52.252;9.124;2023-04-07T08:12:07;16.65;;;10.30;;
49153;SDS011;49455;52.252;9.124;2023-04-07T08:17:08;18.35;;;11.73;;
49153;SDS011;49455;52.252;9.124;2023-04-07T08:22:08;16.35;;;11.57;;
49153;SDS011;49455;52.252;9.124;2023-04-07T08:27:09;18.00;;;11.75;;
49153;SDS011;49455;52.252;9.124;2023-04-07T08:32:11;15.95;;;11.65;;
49153;SDS011;49455;52.252;9.124;2023-04-07T08:37:12;14.13;;;10.82;;
49153;SDS011;49455;52.252;9.124;2023-04-07T08:42:12;16.25;;;11.35;;
49153;SDS011;49455;52.252;9.124;2023-04-07T08:47:13;17.87;;;10.87;;
49153;SDS011;49455;52.252;9.124;2023-04-07T08:52:16;15.90;;;10.90;;
49153;SDS011;49455;52.252;9.124;2023-04-07T08:57:21;14.30;;;11.30;;
49153;SDS011;49455;52.252;9.124;2023-04-07T09:02:21;17.13;;;11.38;;
49153;SDS011;49455;52.252;9.124;2023-04-07T09:07:22;16.40;;;11.20;;
49153;SDS011;49455;52.252;9.124;2023-04-07T09:12:26;15.65;;;11.38;;
49153;SDS011;49455;52.252;9.124;2023-04-07T09:17:28;15.23;;;11.35;;
49153;SDS011;49455;52.252;9.124;2023-04-07T09:22:38;16.50;;;11.93;;
49153;SDS011;49455;52.252;9.124;2023-04-07T09:27:42;15.00;;;10.60;;
49153;SDS011;49455;52.252;9.124;2023-04-07T09:32:54;15.63;;;11.00;;
49153;SDS011;49455;52.252;9.124;2023-04-07T09:38:04;15.18;;;10.40;;
49153;SDS011;49455;52.252;9.124;2023-04-07T09:43:14;18.00;;;11.68;;
49153;SDS011;49455;52.252;9.124;2023-04-07T09:48:21;17.10;;;11.25;;
49153;SDS011;49455;52.252;9.124;2023-04-07T09:53:27;18.05;;;12.27;;
49153;SDS011;49455;52.252;9.124;2023-04-07T09:58:55;16.25;;;11.02;;
49153;SDS011;49455;52.252;9.124;2023-04-07T10:04:02;19.27;;;12.63;;
49153;SDS011;49455;52.252;9.124;2023-04-07T10:09:09;19.40;;;12.40;;
49153;SDS011;49455;52.252;9.124;2023-04-07T10:14:11;19.00;;;12.45;;
49153;SDS011;49455;52.252;9.124;2023-04-07T10:19:12;21.03;;;13.77;;
49153;SDS011;49455;52.252;9.124;2023-04-07T10:24:16;19.00;;;13.40;;
49153;SDS011;49455;52.252;9.124;2023-04-07T10:29:39;18.60;;;13.05;;
49153;SDS011;49455;52.252;9.124;2023-04-07T10:34:54;18.00;;;13.77;;
49153;SDS011;49455;52.252;9.124;2023-04-07T10:45:17;21.10;;;14.10;;
49153;SDS011;49455;52.252;9.124;2023-04-07T10:56:05;23.88;;;15.65;;
49153;SDS011;49455;52.252;9.124;2023-04-07T11:01:16;24.52;;;15.38;;
49153;SDS011;49455;52.252;9.124;2023-04-07T11:06:17;23.07;;;15.97;;
49153;SDS011;49455;52.252;9.124;2023-04-07T11:11:20;23.73;;;15.70;;
49153;SDS011;49455;52.252;9.124;2023-04-07T11:16:35;23.13;;;15.93;;
49153;SDS011;49455;52.252;9.124;2023-04-07T11:21:37;21.80;;;15.13;;
49153;SDS011;49455;52.252;9.124;2023-04-07T11:26:38;19.98;;;14.45;;
49153;SDS011;49455;52.252;9.124;2023-04-07T11:31:40;19.75;;;14.60;;
49153;SDS011;49455;52.252;9.124;2023-04-07T11:36:46;23.13;;;15.13;;
49153;SDS011;49455;52.252;9.124;2023-04-07T11:41:47;22.05;;;13.43;;
49153;SDS011;49455;52.252;9.124;2023-04-07T11:51:57;16.95;;;11.82;;
49153;SDS011;49455;52.252;9.124;2023-04-07T11:57:02;21.23;;;13.43;;
49153;SDS011;49455;52.252;9.124;2023-04-07T12:02:02;18.75;;;12.65;;
49153;SDS011;49455;52.252;9.124;2023-04-07T12:07:10;20.23;;;13.52;;
49153;SDS011;49455;52.252;9.124;2023-04-07T12:12:10;20.52;;;13.10;;
49153;SDS011;49455;52.252;9.124;2023-04-07T12:17:24;18.90;;;13.07;;
49153;SDS011;49455;52.252;9.124;2023-04-07T12:22:26;19.38;;;12.63;;
49153;SDS011;49455;52.252;9.124;2023-04-07T12:27:26;19.75;;;13.27;;
49153;SDS011;49455;52.252;9.124;2023-04-07T12:32:27;19.63;;;12.77;;
49153;SDS011;49455;52.252;9.124;2023-04-07T12:37:27;20.42;;;13.05;;
49153;SDS011;49455;52.252;9.124;2023-04-07T12:42:27;21.40;;;13.15;;
49153;SDS011;49455;52.252;9.124;2023-04-07T12:47:28;22.58;;;14.73;;
49153;SDS011;49455;52.252;9.124;2023-04-07T12:52:28;20.80;;;13.68;;
49153;SDS011;49455;52.252;9.124;2023-04-07T12:57:29;19.38;;;14.02;;
49153;SDS011;49455;52.252;9.124;2023-04-07T13:02:29;20.52;;;14.95;;
49153;SDS011;49455;52.252;9.124;2023-04-07T13:07:30;16.67;;;12.38;;
49153;SDS011;49455;52.252;9.124;2023-04-07T13:12:30;18.25;;;11.40;;
49153;SDS011;49455;52.252;9.124;2023-04-07T13:17:31;19.25;;;12.40;;
49153;SDS011;49455;52.252;9.124;2023-04-07T13:22:31;18.40;;;12.18;;
49153;SDS011;49455;52.252;9.124;2023-04-07T13:27:31;22.25;;;13.00;;
49153;SDS011;49455;52.252;9.124;2023-04-07T13:32:32;18.75;;;12.55;;
49153;SDS011;49455;52.252;9.124;2023-04-07T13:37:32;18.80;;;13.90;;
49153;SDS011;49455;52.252;9.124;2023-04-07T13:42:33;20.23;;;14.23;;
49153;SDS011;49455;52.252;9.124;2023-04-07T13:47:33;18.83;;;12.45;;
49153;SDS011;49455;52.252;9.124;2023-04-07T13:52:34;16.15;;;12.07;;
49153;SDS011;49455;52.252;9.124;2023-04-07T13:57:34;18.08;;;12.05;;
49153;SDS011;49455;52.252;9.124;2023-04-07T14:02:34;15.53;;;11.60;;
49153;SDS011;49455;52.252;9.124;2023-04-07T14:07:35;19.73;;;13.70;;
49153;SDS011;49455;52.252;9.124;2023-04-07T14:12:35;20.30;;;12.05;;
49153;SDS011;49455;52.252;9.124;2023-04-07T14:17:36;18.00;;;12.52;;
49153;SDS011;49455;52.252;9.124;2023-04-07T14:22:36;35.30;;;24.13;;
49153;SDS011;49455;52.252;9.124;2023-04-07T14:27:36;17.42;;;13.25;;
49153;SDS011;49455;52.252;9.124;2023-04-07T14:32:39;18.00;;;11.82;;
49153;SDS011;49455;52.252;9.124;2023-04-07T14:37:40;16.27;;;12.63;;
49153;SDS011;49455;52.252;9.124;2023-04-07T14:42:40;20.10;;;12.90;;
49153;SDS011;49455;52.252;9.124;2023-04-07T14:47:40;17.60;;;12.50;;
49153;SDS011;49455;52.252;9.124;2023-04-07T14:52:41;17.98;;;12.38;;
49153;SDS011;49455;52.252;9.124;2023-04-07T14:57:41;17.57;;;12.30;;
49153;SDS011;49455;52.252;9.124;2023-04-07T15:02:42;16.50;;;12.23;;
49153;SDS011;49455;52.252;9.124;2023-04-07T15:07:42;15.40;;;10.80;;
49153;SDS011;49455;52.252;9.124;2023-04-07T15:12:43;15.23;;;11.17;;
49153;SDS011;49455;52.252;9.124;2023-04-07T15:17:43;14.23;;;11.15;;
49153;SDS011;49455;52.252;9.124;2023-04-07T15:22:44;14.15;;;10.35;;
49153;SDS011;49455;52.252;9.124;2023-04-07T15:27:44;15.98;;;11.07;;
49153;SDS011;49455;52.252;9.124;2023-04-07T15:32:58;15.48;;;10.25;;
49153;SDS011;49455;52.252;9.124;2023-04-07T15:37:59;14.35;;;10.10;;
49153;SDS011;49455;52.252;9.124;2023-04-07T15:42:59;15.57;;;11.00;;
49153;SDS011;49455;52.252;9.124;2023-04-07T15:48:00;12.68;;;10.20;;
49153;SDS011;49455;52.252;9.124;2023-04-07T15:53:00;14.47;;;10.13;;
49153;SDS011;49455;52.252;9.124;2023-04-07T15:58:02;17.15;;;10.48;;
49153;SDS011;49455;52.252;9.124;2023-04-07T16:03:03;13.80;;;10.20;;
49153;SDS011;49455;52.252;9.124;2023-04-07T16:08:04;14.00;;;8.97;;
49153;SDS011;49455;52.252;9.124;2023-04-07T16:13:04;12.05;;;9.50;;
49153;SDS011;49455;52.252;9.124;2023-04-07T16:18:05;14.67;;;9.80;;
49153;SDS011;49455;52.252;9.124;2023-04-07T16:23:10;14.50;;;9.55;;
49153;SDS011;49455;52.252;9.124;2023-04-07T16:28:10;12.32;;;8.85;;
49153;SDS011;49455;52.252;9.124;2023-04-07T16:33:10;13.80;;;9.23;;
49153;SDS011;49455;52.252;9.124;2023-04-07T16:38:11;11.57;;;8.93;;
49153;SDS011;49455;52.252;9.124;2023-04-07T16:43:11;11.50;;;8.20;;
49153;SDS011;49455;52.252;9.124;2023-04-07T16:48:12;12.25;;;7.57;;
49153;SDS011;49455;52.252;9.124;2023-04-07T16:53:12;11.52;;;7.53;;
49153;SDS011;49455;52.252;9.124;2023-04-07T16:58:12;11.10;;;7.57;;
49153;SDS011;49455;52.252;9.124;2023-04-07T17:03:13;10.02;;;7.40;;
49153;SDS011;49455;52.252;9.124;2023-04-07T17:08:13;11.02;;;8.10;;
49153;SDS011;49455;52.252;9.124;2023-04-07T17:13:14;12.73;;;8.02;;
49153;SDS011;49455;52.252;9.124;2023-04-07T17:18:14;10.02;;;7.07;;
49153;SDS011;49455;52.252;9.124;2023-04-07T17:23:15;11.27;;;7.60;;
49153;SDS011;49455;52.252;9.124;2023-04-07T17:28:15;8.68;;;6.53;;
49153;SDS011;49455;52.252;9.124;2023-04-07T17:33:16;11.32;;;6.40;;
49153;SDS011;49455;52.252;9.124;2023-04-07T17:38:16;9.65;;;6.72;;
49153;SDS011;49455;52.252;9.124;2023-04-07T17:43:17;7.90;;;6.15;;
49153;SDS011;49455;52.252;9.124;2023-04-07T17:48:17;9.48;;;6.88;;
49153;SDS011;49455;52.252;9.124;2023-04-07T17:53:17;7.70;;;5.60;;
49153;SDS011;49455;52.252;9.124;2023-04-07T17:58:18;8.55;;;5.53;;
49153;SDS011;49455;52.252;9.124;2023-04-07T18:03:18;8.60;;;5.55;;
49153;SDS011;49455;52.252;9.124;2023-04-07T18:08:19;8.25;;;5.05;;
49153;SDS011;49455;52.252;9.124;2023-04-07T18:13:19;8.48;;;5.50;;
49153;SDS011;49455;52.252;9.124;2023-04-07T18:18:20;7.53;;;5.10;;
49153;SDS011;49455;52.252;9.124;2023-04-07T18:23:20;9.20;;;5.35;;
49153;SDS011;49455;52.252;9.124;2023-04-07T18:28:20;7.90;;;4.82;;
49153;SDS011;49455;52.252;9.124;2023-04-07T18:33:21;10.45;;;5.60;;
49153;SDS011;49455;52.252;9.124;2023-04-07T18:38:21;6.20;;;4.78;;
49153;SDS011;49455;52.252;9.124;2023-04-07T18:43:23;6.53;;;5.35;;
49153;SDS011;49455;52.252;9.124;2023-04-07T18:48:24;11.38;;;6.65;;
49153;SDS011;49455;52.252;9.124;2023-04-07T18:53:24;10.20;;;6.15;;
49153;SDS011;49455;52.252;9.124;2023-04-07T18:58:25;6.97;;;5.50;;
49153;SDS011;49455;52.252;9.124;2023-04-07T19:03:25;8.73;;;5.10;;
49153;SDS011;49455;52.252;9.124;2023-04-07T19:08:26;7.50;;;5.57;;
49153;SDS011;49455;52.252;9.124;2023-04-07T19:13:26;8.90;;;6.07;;
49153;SDS011;49455;52.252;9.124;2023-04-07T19:18:27;8.13;;;5.90;;
49153;SDS011;49455;52.252;9.124;2023-04-07T19:23:28;11.90;;;6.28;;
49153;SDS011;49455;52.252;9.124;2023-04-07T19:28:29;7.82;;;5.95;;
49153;SDS011;49455;52.252;9.124;2023-04-07T19:33:29;7.93;;;5.75;;
49153;SDS011;49455;52.252;9.124;2023-04-07T19:38:30;8.35;;;6.00;;
49153;SDS011;49455;52.252;9.124;2023-04-07T19:43:31;10.00;;;5.95;;
49153;SDS011;49455;52.252;9.124;2023-04-07T19:48:31;8.07;;;5.35;;
49153;SDS011;49455;52.252;9.124;2023-04-07T19:53:31;8.43;;;5.43;;
49153;SDS011;49455;52.252;9.124;2023-04-07T19:58:32;8.20;;;5.40;;
49153;SDS011;49455;52.252;9.124;2023-04-07T20:03:32;8.50;;;4.75;;
49153;SDS011;49455;52.252;9.124;2023-04-07T20:08:33;8.75;;;5.70;;
49153;SDS011;49455;52.252;9.124;2023-04-07T20:13:33;8.25;;;5.00;;
49153;SDS011;49455;52.252;9.124;2023-04-07T20:18:34;6.95;;;4.45;;
49153;SDS011;49455;52.252;9.124;2023-04-07T20:23:34;11.10;;;5.85;;
49153;SDS011;49455;52.252;9.124;2023-04-07T20:28:35;12.77;;;6.00;;
49153;SDS011;49455;52.252;9.124;2023-04-07T20:33:35;8.35;;;4.70;;
49153;SDS011;49455;52.252;9.124;2023-04-07T20:38:35;7.40;;;4.82;;
49153;SDS011;49455;52.252;9.124;2023-04-07T20:43:36;7.38;;;4.63;;
49153;SDS011;49455;52.252;9.124;2023-04-07T20:48:36;8.52;;;5.63;;
49153;SDS011;49455;52.252;9.124;2023-04-07T20:53:37;8.63;;;5.15;;
49153;SDS011;49455;52.252;9.124;2023-04-07T20:58:37;9.35;;;5.30;;
49153;SDS011;49455;52.252;9.124;2023-04-07T21:03:37;12.52;;;7.65;;
49153;SDS011;49455;52.252;9.124;2023-04-07T21:08:38;12.30;;;8.13;;
49153;SDS011;49455;52.252;9.124;2023-04-07T21:13:38;12.10;;;8.00;;
49153;SDS011;49455;52.252;9.124;2023-04-07T21:18:39;12.70;;;7.38;;
49153;SDS011;49455;52.252;9.124;2023-04-07T21:23:39;11.18;;;7.03;;
49153;SDS011;49455;52.252;9.124;2023-04-07T21:28:39;11.02;;;6.20;;
49153;SDS011;49455;52.252;9.124;2023-04-07T21:33:40;11.15;;;5.65;;
49153;SDS011;49455;52.252;9.124;2023-04-07T21:38:40;10.50;;;5.32;;
49153;SDS011;49455;52.252;9.124;2023-04-07T21:43:41;8.05;;;4.93;;
49153;SDS011;49455;52.252;9.124;2023-04-07T21:48:41;8.85;;;4.97;;
49153;SDS011;49455;52.252;9.124;2023-04-07T21:53:42;6.53;;;4.32;;
49153;SDS011;49455;52.252;9.124;2023-04-07T21:58:42;6.00;;;3.90;;
49153;SDS011;49455;52.252;9.124;2023-04-07T22:03:42;7.72;;;4.53;;
49153;SDS011;49455;52.252;9.124;2023-04-07T22:08:43;7.07;;;4.38;;
49153;SDS011;49455;52.252;9.124;2023-04-07T22:13:43;11.52;;;4.78;;
49153;SDS011;49455;52.252;9.124;2023-04-07T22:18:43;9.55;;;4.80;;
49153;SDS011;49455;52.252;9.124;2023-04-07T22:23:44;9.90;;;5.50;;
49153;SDS011;49455;52.252;9.124;2023-04-07T22:28:44;8.93;;;5.18;;
49153;SDS011;49455;52.252;9.124;2023-04-07T22:33:45;8.70;;;5.13;;
49153;SDS011;49455;52.252;9.124;2023-04-07T22:38:45;9.07;;;5.13;;
49153;SDS011;49455;52.252;9.124;2023-04-07T22:43:45;8.52;;;5.28;;
49153;SDS011;49455;52.252;9.124;2023-04-07T22:48:46;8.18;;;5.55;;
49153;SDS011;49455;52.252;9.124;2023-04-07T22:53:46;8.95;;;5.68;;
49153;SDS011;49455;52.252;9.124;2023-04-07T22:58:47;8.68;;;5.20;;
49153;SDS011;49455;52.252;9.124;2023-04-07T23:03:47;8.65;;;5.40;;
49153;SDS011;49455;52.252;9.124;2023-04-07T23:08:48;9.48;;;5.60;;
49153;SDS011;49455;52.252;9.124;2023-04-07T23:13:48;9.23;;;5.75;;
49153;SDS011;49455;52.252;9.124;2023-04-07T23:18:49;8.82;;;5.32;;
49153;SDS011;49455;52.252;9.124;2023-04-07T23:23:49;8.82;;;5.32;;
49153;SDS011;49455;52.252;9.124;2023-04-07T23:28:49;8.60;;;5.13;;
49153;SDS011;49455;52.252;9.124;2023-04-07T23:33:50;8.60;;;5.85;;
49153;SDS011;49455;52.252;9.124;2023-04-07T23:38:50;6.65;;;5.10;;
49153;SDS011;49455;52.252;9.124;2023-04-07T23:43:51;14.07;;;5.80;;
49153;SDS011;49455;52.252;9.124;2023-04-07T23:48:51;8.40;;;5.55;;
49153;SDS011;49455;52.252;9.124;2023-04-07T23:53:51;8.90;;;5.70;;
49153;SDS011;49455;52.252;9.124;2023-04-07T23:58:52;7.90;;;5.60;;
